Doddtown, New Jersey
Current Conditions -  °F | °C
As of 9:51 PM on Tuesday 25 Nov 2014 (Local Time) from KEWR Reporting Station
Overcast Overcast  
Wind Chill: 47°   Ceiling: 15000
Heat Index: 49°   Visibility: 10mi
Dew Point: 31°   Wind: 5mph
Humidity: 50%   Direction: 250°WSW
Pressure: 30.13"   Gusts: NA
Location:  40.7716°N, 74.2073°W
Report Text: KEWR 260251Z 25004KT 10SM FEW120 BKN150 OVC230 09/M01 A3013 RMK AO2 SLP203 T00941006 51021 $
Loading
Personal Weather Stations






























Interactive Weather Map New forecast layout! Learn more

10-Day Weather Forecast

Advertisements
Track Severe Weather on mobile